Time;durP1;ratioP1;P1;durP2;ratioP2;P2;SDS_P1;SDS_P2;PMS_P1;PMS_P2;Temp;Humidity;BMP_temperature;BMP_pressure;BME280_temperature;BME280_humidity;BME280_pressure;Samples;Min_cycle;Max_cycle;Signal;HPM_P1;HPM_P2
2022/10/03 00:02:56;;;;;;;42.07;25.20;;;9.70;99.90;;;10.12;99.92;98600.50;5095986;27;20478;-83
2022/10/03 00:05:37;;;;;;;31.40;23.47;;;9.90;99.90;;;10.07;100.00;98617.28;5115818;27;20507;-82
2022/10/03 00:08:19;;;;;;;38.90;24.17;;;9.90;99.90;;;10.02;99.93;98590.06;5108111;27;20457;-82
2022/10/03 00:11:02;;;;;;;30.80;20.93;;;9.90;99.90;;;9.98;99.97;98577.13;5123145;27;20466;-83
2022/10/03 00:13:45;;;;;;;33.33;23.43;;;10.00;99.90;;;10.09;98.99;98616.25;5112086;27;20504;-82
2022/10/03 00:16:19;;;;;;;26.73;20.50;;;9.90;99.90;;;10.05;98.92;98616.66;5128967;27;20451;-82
2022/10/03 00:18:59;;;;;;;30.50;21.60;;;9.80;99.90;;;9.69;99.12;98569.03;5101629;27;20453;-83
2022/10/03 00:21:41;;;;;;;30.17;21.67;;;9.80;99.90;;;9.71;98.18;98579.66;5127241;27;20470;-83
2022/10/03 00:24:24;;;;;;;29.30;21.10;;;9.70;99.90;;;9.50;99.72;98586.75;5121060;27;20455;-83
2022/10/03 00:26:58;;;;;;;34.83;22.90;;;9.70;99.90;;;9.92;99.05;98632.75;5123278;27;20464;-84
2022/10/03 00:29:44;;;;;;;30.37;20.30;;;9.70;99.90;;;9.97;98.52;98615.97;5126420;27;20450;-85
2022/10/03 00:32:30;;;;;;;34.67;22.30;;;9.70;99.90;;;9.91;99.80;98626.50;5131731;27;20588;-85
2022/10/03 00:35:15;;;;;;;28.57;20.80;;;9.80;99.90;;;9.35;98.17;98530.19;5102619;28;20454;-87
2022/10/03 00:38:00;;;;;;;32.27;21.30;;;9.90;99.90;;;9.84;98.85;98604.03;5140207;27;20477;-86
2022/10/03 00:41:05;;;;;;;30.33;21.40;;;9.90;99.90;;;10.41;98.15;98651.78;5097038;28;20447;-84
2022/10/03 00:44:43;;;;;;;31.33;19.57;;;10.00;99.90;;;10.37;98.31;98648.59;5126069;27;20497;-85
2022/10/03 00:48:00;;;;;;;31.30;20.77;;;10.10;99.90;;;10.46;98.36;98652.84;5069673;27;20460;-83
2022/10/03 00:51:18;;;;;;;25.63;20.10;;;10.10;99.90;;;10.67;97.57;98661.91;5130433;27;20454;-82
2022/10/03 00:54:19;;;;;;;27.67;19.40;;;10.20;99.90;;;10.48;97.84;98664.28;5110565;27;20472;-85
2022/10/03 00:57:07;;;;;;;24.93;18.13;;;10.20;99.90;;;9.88;97.52;98555.91;5114730;27;20481;-83
2022/10/03 01:00:06;;;;;;;27.53;19.23;;;10.20;99.90;;;10.55;98.36;98668.91;5130634;27;20462;-81
2022/10/03 01:03:10;;;;;;;23.63;17.57;;;10.20;99.90;;;10.59;97.56;98667.47;5099656;27;20953;-83
2022/10/03 01:05:52;;;;;;;23.10;18.40;;;10.30;99.90;;;10.57;97.91;98666.84;5129569;27;20520;-84
2022/10/03 01:09:04;;;;;;;25.07;20.17;;;10.30;99.90;;;10.35;98.27;98669.59;5098160;28;20453;-84
2022/10/03 01:11:46;;;;;;;30.83;19.10;;;10.20;99.90;;;10.33;97.85;98666.25;5087308;27;20449;-84
2022/10/03 01:14:31;;;;;;;32.03;20.53;;;10.10;99.90;;;10.15;99.42;98675.69;5123554;27;20463;-83
2022/10/03 01:17:13;;;;;;;25.80;19.20;;;10.10;99.90;;;9.90;98.25;98624.00;5112883;27;20459;-84
2022/10/03 01:20:14;;;;;;;26.63;20.23;;;10.10;99.90;;;9.80;99.13;98635.16;5105655;27;20480;-83
2022/10/03 01:23:47;;;;;;;24.97;20.80;;;10.00;99.90;;;10.07;99.65;98676.69;5105272;27;20472;-82
2022/10/03 01:26:55;;;;;;;30.33;19.97;;;10.00;99.90;;;10.18;98.78;98686.09;5083149;27;20479;-86
2022/10/03 01:32:30;;;;;;;27.93;19.83;;;10.00;99.90;;;9.50;97.61;98565.19;5089259;27;20457;-83
2022/10/03 01:35:11;;;;;;;27.10;20.90;;;10.00;99.90;;;9.69;98.57;98612.22;5094076;28;20463;-82
2022/10/03 01:37:50;;;;;;;28.77;19.87;;;10.00;99.90;;;9.95;98.98;98670.13;5104405;27;20466;-82
2022/10/03 01:40:28;;;;;;;32.80;20.83;;;9.90;99.90;;;10.04;98.66;98671.69;5096293;28;20458;-82
2022/10/03 01:43:10;;;;;;;24.93;19.60;;;9.90;99.90;;;9.96;98.11;98684.47;5097736;27;20467;-83
2022/10/03 01:45:59;;;;;;;30.70;20.20;;;9.90;99.90;;;9.85;98.30;98680.44;5119280;27;20477;-82
2022/10/03 01:48:37;;;;;;;29.63;20.80;;;9.80;99.90;;;9.51;98.82;98655.84;5122129;27;20454;-83
2022/10/03 01:51:11;;;;;;;30.93;20.10;;;9.70;99.90;;;9.86;98.88;98690.22;5118293;27;20451;-83
2022/10/03 01:54:15;;;;;;;30.87;22.67;;;9.70;99.90;;;9.87;98.89;98686.50;5101584;27;20447;-82
2022/10/03 01:56:54;;;;;;;26.50;20.47;;;9.70;99.90;;;9.66;99.13;98673.84;5110771;27;20465;-83
2022/10/03 01:59:29;;;;;;;25.97;21.07;;;9.70;99.90;;;9.81;98.63;98685.41;5101836;27;20454;-81
2022/10/03 02:05:04;;;;;;;31.23;20.70;;;9.70;99.90;;;10.15;97.47;98686.50;5114002;27;20455;-84
2022/10/03 02:07:47;;;;;;;40.20;21.20;;;9.80;99.90;;;9.88;96.42;98651.19;5101304;28;20649;-83
2022/10/03 02:10:34;;;;;;;30.43;20.33;;;9.90;99.90;;;9.72;96.66;98611.84;5111347;28;20481;-85
2022/10/03 02:13:13;;;;;;;30.03;21.40;;;9.80;99.90;;;10.08;96.78;98666.69;5091119;28;20496;-83
2022/10/03 02:15:58;;;;;;;26.80;19.00;;;9.90;99.90;;;9.74;96.45;98620.56;5099846;28;20456;-85
2022/10/03 02:18:39;;;;;;;27.70;19.70;;;9.80;99.90;;;9.60;97.81;98657.38;5109401;28;20828;-82
2022/10/03 02:21:15;;;;;;;32.73;20.07;;;9.80;99.90;;;9.39;97.84;98608.84;5113219;28;20539;-83
2022/10/03 02:23:45;;;;;;;28.83;19.77;;;9.80;99.90;;;9.75;98.40;98675.34;5108009;28;20468;-83
2022/10/03 02:27:03;;;;;;;31.93;22.00;;;9.70;99.90;;;9.72;98.68;98682.00;5095433;28;20595;-86
2022/10/03 02:30:04;;;;;;;33.83;21.30;;;9.70;99.90;;;9.84;98.14;98701.19;5096413;28;20559;-83
2022/10/03 02:33:24;;;;;;;33.10;21.50;;;9.70;99.90;;;9.78;98.40;98701.94;5122018;28;20461;-82
2022/10/03 02:36:38;;;;;;;31.03;20.70;;;9.70;99.90;;;9.67;98.31;98710.59;5106290;28;20451;-86
2022/10/03 02:39:53;;;;;;;28.10;20.87;;;9.60;99.90;;;9.63;98.91;98735.25;5104581;28;20451;-83
2022/10/03 02:43:33;;;;;;;25.80;20.30;;;9.50;99.90;;;9.72;98.58;98718.94;5116274;28;20463;-83
2022/10/03 02:46:22;;;;;;;29.40;22.00;;;9.50;99.90;;;9.69;98.94;98725.53;5049777;28;20488;-86
2022/10/03 02:49:54;;;;;;;38.70;21.97;;;9.50;99.90;;;9.68;98.42;98728.44;5124426;28;20474;-84
2022/10/03 02:53:06;;;;;;;32.00;21.50;;;9.50;99.90;;;9.29;98.86;98709.75;5109116;28;20451;-82
2022/10/03 02:56:12;;;;;;;33.80;21.80;;;9.50;99.90;;;9.26;99.20;98676.97;5122339;28;20450;-84
2022/10/03 02:59:13;;;;;;;36.17;21.47;;;9.50;99.90;;;9.83;97.89;98749.97;5121858;28;20448;-82
2022/10/03 03:02:05;;;;;;;39.47;21.40;;;9.60;99.90;;;9.81;97.38;98733.97;5104206;28;20946;-82
2022/10/03 03:05:04;;;;;;;31.70;21.20;;;9.70;99.90;;;9.81;96.84;98727.72;5124095;28;20954;-84
2022/10/03 03:08:01;;;;;;;29.40;20.63;;;9.70;99.90;;;9.88;96.44;98740.25;5121043;27;20462;-82
2022/10/03 03:11:07;;;;;;;28.30;19.27;;;9.70;99.90;;;9.77;96.52;98746.16;5112371;27;20457;-82
2022/10/03 03:14:39;;;;;;;28.73;19.83;;;9.70;99.90;;;9.92;97.27;98762.31;5117115;27;20482;-83
2022/10/03 03:17:24;;;;;;;33.67;20.23;;;9.70;99.90;;;9.68;97.77;98761.63;5114435;27;20452;-83
2022/10/03 03:20:29;;;;;;;36.87;21.10;;;9.60;99.90;;;9.71;98.34;98760.44;5127900;27;20449;-83
2022/10/03 03:23:35;;;;;;;31.00;21.00;;;9.60;99.90;;;9.82;97.18;98762.63;5105114;27;20445;-84
2022/10/03 03:26:34;;;;;;;34.57;21.10;;;9.60;99.90;;;9.78;98.13;98764.03;5121157;27;20945;-85
2022/10/03 03:29:16;;;;;;;30.60;19.57;;;9.50;99.90;;;9.53;97.19;98753.59;5125459;27;20450;-86
2022/10/03 03:31:56;;;;;;;35.47;21.30;;;9.50;99.90;;;9.75;95.76;98769.81;5108502;27;20501;-84
2022/10/03 03:34:30;;;;;;;33.27;21.47;;;9.50;99.90;;;9.59;97.56;98777.13;5122363;27;20462;-87
2022/10/03 03:37:07;;;;;;;29.27;21.00;;;9.40;99.90;;;9.47;96.89;98751.66;5118002;28;21046;-86
2022/10/03 03:40:00;;;;;;;31.53;19.37;;;9.40;99.90;;;9.68;96.63;98771.63;5116819;27;20525;-87
2022/10/03 03:43:08;;;;;;;28.80;19.97;;;9.30;99.90;;;9.46;95.74;98750.00;5110539;27;20469;-84
2022/10/03 03:45:55;;;;;;;28.63;20.70;;;9.40;99.90;;;9.30;96.66;98762.66;5105550;27;20515;-84
2022/10/03 03:49:00;;;;;;;29.80;21.03;;;9.30;99.90;;;9.53;97.68;98779.75;5116528;27;20465;-84
2022/10/03 03:51:41;;;;;;;29.83;20.40;;;9.20;99.90;;;9.56;95.90;98779.38;5071474;27;20442;-82
2022/10/03 03:55:08;;;;;;;34.40;21.67;;;9.20;99.90;;;9.51;95.48;98758.38;5097403;28;20454;-84
2022/10/03 03:57:55;;;;;;;27.53;19.27;;;9.30;99.90;;;9.38;95.83;98748.25;5109740;27;20464;-82
2022/10/03 04:00:38;;;;;;;29.37;19.00;;;9.30;99.90;;;9.46;96.73;98782.34;5117707;27;20443;-82
2022/10/03 04:03:26;;;;;;;33.80;19.00;;;9.20;99.90;;;9.40;95.02;98778.59;5119934;27;20442;-83
2022/10/03 04:06:35;;;;;;;28.03;20.47;;;9.10;99.90;;;9.39;96.12;98782.28;5102332;27;20515;-82
2022/10/03 04:09:45;;;;;;;37.27;22.00;;;9.10;99.90;;;9.23;96.11;98777.94;5129314;27;20456;-82
2022/10/03 04:12:28;;;;;;;33.57;20.67;;;9.00;99.90;;;9.03;96.95;98762.34;5110491;27;20463;-82
2022/10/03 04:15:35;;;;;;;36.70;20.60;;;9.00;99.90;;;9.17;96.08;98775.97;5116188;27;20480;-82
2022/10/03 04:21:38;;;;;;;29.87;19.83;;;9.00;99.90;;;8.83;96.54;98745.06;5111312;27;20957;-85
2022/10/03 04:24:49;;;;;;;33.23;20.33;;;8.80;99.90;;;8.97;97.66;98789.22;5102511;27;20452;-83
2022/10/03 04:27:36;;;;;;;35.20;21.10;;;8.80;99.90;;;8.67;96.90;98756.88;5122555;27;20498;-82
2022/10/03 04:30:13;;;;;;;30.80;21.80;;;8.70;99.90;;;8.79;98.25;98791.25;5113543;27;20799;-82
2022/10/03 04:33:09;;;;;;;38.80;21.90;;;8.60;99.90;;;8.93;97.76;98791.44;5120911;27;20463;-83
2022/10/03 04:36:15;;;;;;;37.13;21.87;;;8.60;99.90;;;8.67;96.79;98752.31;5105264;27;20517;-83
2022/10/03 04:38:55;;;;;;;34.63;21.07;;;8.70;99.90;;;8.88;96.98;98788.47;5120092;27;20528;-81
2022/10/03 04:41:39;;;;;;;34.53;20.40;;;8.60;99.90;;;8.86;97.16;98796.75;5114162;27;20458;-84
2022/10/03 04:44:24;;;;;;;33.97;20.47;;;8.60;99.90;;;8.76;97.59;98788.09;5123474;27;20481;-83
2022/10/03 04:46:56;;;;;;;31.77;19.57;;;8.60;99.90;;;8.57;96.15;98749.03;5109237;27;20481;-84
2022/10/03 04:49:34;;;;;;;28.17;18.93;;;8.60;99.90;;;8.66;95.85;98747.94;5115258;27;20457;-82
2022/10/03 04:52:27;;;;;;;30.60;20.53;;;8.60;99.90;;;8.84;95.99;98776.38;5103568;27;20451;-83
2022/10/03 04:55:07;;;;;;;34.40;20.07;;;8.60;99.90;;;8.92;96.98;98795.16;5105750;28;20455;-84
2022/10/03 04:57:51;;;;;;;38.17;21.63;;;8.70;99.90;;;8.91;96.92;98788.91;5127316;27;20456;-83
2022/10/03 05:00:27;;;;;;;32.43;20.80;;;8.60;99.90;;;8.94;96.71;98793.13;5113662;27;20465;-82
2022/10/03 05:03:05;;;;;;;41.07;22.47;;;8.70;99.90;;;8.86;97.78;98795.88;5134230;27;20445;-86
2022/10/03 05:05:49;;;;;;;42.67;24.07;;;8.70;99.90;;;8.07;99.04;98701.91;5124261;28;20462;-87
2022/10/03 05:11:24;;;;;;;35.10;23.00;;;8.90;99.90;;;8.95;97.54;98778.63;5115863;27;20999;-83
2022/10/03 05:14:11;;;;;;;35.90;22.67;;;8.90;99.90;;;9.08;97.10;98775.25;5105852;27;20507;-81
2022/10/03 05:16:45;;;;;;;32.90;20.33;;;8.90;99.90;;;8.63;96.67;98699.84;5114665;27;20450;-85
2022/10/03 05:19:49;;;;;;;34.80;20.50;;;9.00;99.90;;;9.32;96.91;98795.69;5100542;27;20511;-86
2022/10/03 05:22:41;;;;;;;31.53;19.70;;;9.00;99.90;;;9.10;96.96;98780.47;5030245;28;20471;-83
2022/10/03 05:25:29;;;;;;;26.73;18.60;;;9.00;99.90;;;9.10;97.23;98791.25;5099602;27;20985;-79
2022/10/03 05:28:14;;;;;;;27.30;20.00;;;9.00;99.90;;;9.02;96.77;98760.69;5116093;27;20474;-81
2022/10/03 05:30:53;;;;;;;26.93;19.70;;;9.00;99.90;;;9.18;96.56;98761.50;5109487;27;21148;-82
2022/10/03 05:33:38;;;;;;;28.20;18.90;;;9.10;99.90;;;9.20;94.93;98748.66;5112529;27;20458;-83
2022/10/03 05:36:26;;;;;;;26.10;17.13;;;9.20;99.90;;;9.49;95.15;98812.50;5122271;27;20437;-82
2022/10/03 05:39:26;;;;;;;25.43;18.23;;;9.20;99.90;;;9.53;94.93;98812.97;5108039;27;20486;-82
2022/10/03 05:42:04;;;;;;;26.37;17.57;;;9.20;99.90;;;9.41;94.41;98792.88;5102684;27;20458;-80
2022/10/03 05:44:43;;;;;;;24.83;17.50;;;9.20;99.90;;;9.20;95.50;98784.53;5085920;27;20469;-80
2022/10/03 05:50:29;;;;;;;28.70;18.80;;;9.30;99.90;;;9.72;94.07;98824.16;5097927;28;20455;-85
2022/10/03 05:53:09;;;;;;;28.67;17.77;;;9.40;99.90;;;9.74;94.70;98841.00;5120567;28;20450;-79
2022/10/03 05:55:58;;;;;;;28.13;16.97;;;9.50;99.90;;;8.31;95.46;98653.38;5104397;28;20451;-80
2022/10/03 05:58:55;;;;;;;28.00;18.70;;;9.40;99.90;;;9.39;96.25;98838.09;5103759;28;20443;-82
2022/10/03 06:01:59;;;;;;;31.27;18.17;;;9.30;99.90;;;9.51;96.46;98836.59;5134689;27;20449;-84
2022/10/03 06:05:02;;;;;;;26.73;16.67;;;9.40;99.90;;;9.56;96.30;98838.72;5109413;27;20462;-83
2022/10/03 06:07:42;;;;;;;28.20;18.10;;;9.40;99.90;;;9.59;96.95;98849.97;5105635;28;20477;-83
2022/10/03 06:10:44;;;;;;;26.20;18.00;;;9.40;99.90;;;9.08;96.40;98794.13;5100397;28;20434;-83
2022/10/03 06:13:25;;;;;;;27.50;18.73;;;9.40;99.90;;;9.52;96.51;98849.06;5128802;28;20454;-83
2022/10/03 06:16:09;;;;;;;32.33;18.50;;;9.40;99.90;;;8.79;96.68;98737.38;5127614;28;20530;-83
2022/10/03 06:19:07;;;;;;;26.03;17.90;;;9.40;99.90;;;9.60;96.52;98857.03;5115656;28;20567;-82
2022/10/03 06:22:33;;;;;;;26.93;18.63;;;9.40;99.90;;;9.64;94.85;98858.34;5109730;27;20486;-82
2022/10/03 06:26:00;;;;;;;24.60;17.40;;;9.60;99.90;;;9.63;95.14;98864.78;5094007;28;20531;-78
2022/10/03 06:29:14;;;;;;;28.27;19.40;;;9.60;99.90;;;9.61;95.53;98869.50;5108986;28;20462;-82
2022/10/03 06:32:32;;;;;;;27.70;18.07;;;9.60;99.90;;;9.71;95.02;98868.38;5129101;28;20523;-80
2022/10/03 06:35:32;;;;;;;30.53;18.43;;;9.60;99.90;;;9.83;95.06;98877.66;5125321;28;20461;-81
2022/10/03 06:38:41;;;;;;;22.00;16.50;;;9.70;99.90;;;9.64;95.23;98820.56;5119734;28;20435;-83
2022/10/03 06:41:41;;;;;;;28.30;16.67;;;9.70;99.90;;;9.69;94.04;98789.47;5116526;27;20477;-83
2022/10/03 06:44:31;;;;;;;20.37;16.13;;;10.00;99.90;;;10.20;92.66;98874.94;5104307;27;20450;-81
2022/10/03 06:47:27;;;;;;;23.67;16.20;;;10.00;99.90;;;10.36;92.55;98865.75;5102220;27;20498;-81
2022/10/03 06:50:30;;;;;;;20.53;16.07;;;10.20;99.90;;;10.91;90.00;98884.13;5120212;27;20465;-75
2022/10/03 06:53:19;;;;;;;18.57;14.60;;;10.40;99.90;;;10.85;88.74;98887.63;5119021;27;20479;-83
2022/10/03 06:56:55;;;;;;;21.97;15.13;;;10.50;99.90;;;10.98;87.52;98885.00;5120562;27;20508;-79
2022/10/03 07:00:14;;;;;;;20.43;15.00;;;10.60;99.90;;;10.94;87.93;98882.91;5095078;27;21071;-81
2022/10/03 07:03:25;;;;;;;22.63;15.17;;;10.70;99.90;;;11.22;86.86;98880.16;5100491;27;20453;-77
2022/10/03 07:06:28;;;;;;;24.63;15.10;;;10.90;99.90;;;11.15;85.61;98882.00;5099898;27;20461;-77
2022/10/03 07:09:53;;;;;;;18.13;14.10;;;10.90;99.90;;;11.19;85.81;98885.97;5119500;27;20479;-78
2022/10/03 07:13:03;;;;;;;18.80;14.90;;;11.00;99.90;;;11.35;84.50;98879.41;5092057;27;20464;-76
2022/10/03 07:16:10;;;;;;;16.50;14.00;;;11.10;99.90;;;11.38;84.57;98851.13;5092662;27;20459;-77
2022/10/03 07:19:37;;;;;;;20.60;15.30;;;11.20;99.90;;;11.99;83.57;98880.13;5117438;27;20485;-78
2022/10/03 07:23:05;;;;;;;16.70;13.43;;;11.40;99.90;;;11.83;82.18;98881.31;5075937;27;20449;-76
2022/10/03 07:26:16;;;;;;;18.80;14.97;;;11.50;96.40;;;11.60;82.76;98882.47;5115296;27;20464;-77
2022/10/03 07:29:18;;;;;;;16.90;11.67;;;11.40;96.50;;;11.48;83.24;98890.31;5110287;27;20450;-79
2022/10/03 07:32:21;;;;;;;18.53;13.43;;;11.30;97.20;;;11.73;82.42;98894.38;5100283;27;20451;-79
2022/10/03 07:39:36;;;;;;;16.87;12.40;;;11.70;97.70;;;12.26;80.31;98880.19;5104804;27;20483;-78
2022/10/03 07:42:53;;;;;;;20.27;13.27;;;12.00;94.60;;;12.34;79.53;98892.72;5100700;27;20468;-76
2022/10/03 07:45:41;;;;;;;12.73;10.70;;;12.10;93.60;;;11.94;79.87;98900.72;5115527;27;20463;-79
2022/10/03 07:48:48;;;;;;;16.60;12.80;;;12.00;92.50;;;12.18;79.61;98913.72;5116065;27;20482;-76
2022/10/03 07:51:26;;;;;;;16.40;13.10;;;11.90;93.40;;;12.53;79.87;98909.25;5122267;27;20939;-77
2022/10/03 07:54:52;;;;;;;16.67;13.13;;;12.20;94.10;;;12.78;78.69;98917.59;5119264;27;20548;-81
2022/10/03 07:57:54;;;;;;;14.10;11.60;;;12.40;94.10;;;13.08;77.65;98917.19;5115372;27;20445;-82
2022/10/03 08:00:23;;;;;;;15.60;13.30;;;12.70;92.70;;;13.37;75.57;98922.34;5119905;27;20475;-79
2022/10/03 08:03:42;;;;;;;16.30;12.80;;;13.00;91.50;;;13.53;74.81;98916.50;5098575;27;20552;-79
2022/10/03 08:06:28;;;;;;;13.13;10.23;;;13.10;90.60;;;13.29;74.01;98920.69;5114032;27;20455;-77
2022/10/03 08:09:34;;;;;;;14.60;10.80;;;13.10;89.20;;;13.39;75.06;98925.69;5121952;27;20537;-77
2022/10/03 08:12:56;;;;;;;13.07;10.60;;;13.00;90.60;;;13.66;75.88;98923.81;5085702;27;20511;-78
2022/10/03 08:15:42;;;;;;;13.20;10.40;;;13.30;91.20;;;13.91;74.41;98927.69;5102291;27;20457;-76
2022/10/03 08:18:53;;;;;;;17.80;10.40;;;13.50;90.30;;;13.75;72.45;98921.69;5101472;27;20936;-75
2022/10/03 08:21:31;;;;;;;11.87;9.80;;;13.60;88.50;;;12.82;76.80;98926.97;5122482;27;20544;-78
2022/10/03 08:24:24;;;;;;;13.10;9.43;;;13.10;89.90;;;12.97;75.70;98924.09;5093070;27;20453;-78
2022/10/03 08:27:19;;;;;;;10.43;8.90;;;12.70;90.30;;;13.23;74.97;98933.22;5103463;27;20900;-81
2022/10/03 08:30:21;;;;;;;15.07;9.80;;;12.80;90.20;;;13.67;75.44;98916.47;5111779;27;20975;-88
2022/10/03 08:33:25;;;;;;;18.93;9.77;;;13.10;91.10;;;13.55;73.28;98936.13;5103531;27;20532;-85
2022/10/03 08:36:48;;;;;;;10.73;9.60;;;13.30;89.20;;;13.48;73.22;98932.59;5097679;27;20447;-73
2022/10/03 08:39:37;;;;;;;15.40;7.63;;;13.20;88.50;;;13.53;72.24;98930.06;5099570;27;20820;-73
2022/10/03 08:42:52;;;;;;;10.87;7.90;;;13.20;86.90;;;13.90;71.56;98926.00;5110601;27;20459;-73
2022/10/03 08:45:59;;;;;;;9.53;7.20;;;13.40;87.30;;;14.30;70.01;98926.66;5095999;27;20462;-73
2022/10/03 08:49:00;;;;;;;7.70;6.87;;;13.70;86.50;;;14.68;67.36;98926.84;5100646;27;21143;-72
2022/10/03 08:52:08;;;;;;;9.90;7.00;;;14.30;84.80;;;14.36;67.44;98924.97;5119935;27;20508;-85
2022/10/03 08:55:18;;;;;;;9.07;7.90;;;14.30;84.00;;;14.95;66.48;98926.66;5078170;27;20530;-77
2022/10/03 08:58:19;;;;;;;11.30;7.17;;;14.40;84.10;;;15.12;66.09;98943.28;5112129;27;20455;-73
2022/10/03 09:01:25;;;;;;;8.17;6.37;;;14.70;83.10;;;14.79;65.82;98938.94;5114795;27;20472;-73
2022/10/03 09:04:51;;;;;;;11.17;6.20;;;14.60;82.90;;;14.49;67.28;98924.03;5095958;27;20482;-75
2022/10/03 09:07:54;;;;;;;11.60;7.20;;;14.30;83.00;;;14.88;67.30;98934.88;5107099;27;20473;-76
2022/10/03 09:11:27;;;;;;;8.80;7.00;;;14.30;83.50;;;14.27;67.50;98928.97;5118906;27;20551;-76
2022/10/03 09:14:58;;;;;;;7.60;5.47;;;14.30;83.50;;;14.23;66.73;98935.91;5047733;27;20562;-79
2022/10/03 09:18:14;;;;;;;10.60;5.70;;;13.90;83.10;;;13.94;66.62;98932.69;5109865;27;20959;-76
2022/10/03 09:21:43;;;;;;;8.80;5.30;;;13.80;82.70;;;13.77;68.26;98938.59;5116129;27;20516;-76
2022/10/03 09:25:10;;;;;;;7.70;5.43;;;13.50;83.00;;;14.10;68.13;98937.63;5105071;28;20440;-77
2022/10/03 09:28:26;;;;;;;11.00;5.47;;;13.60;83.60;;;14.02;67.57;98941.41;5110022;27;20506;-77
2022/10/03 09:31:05;;;;;;;9.93;5.10;;;13.90;82.60;;;14.29;68.04;98940.44;5099324;27;20956;-76
2022/10/03 09:34:08;;;;;;;10.17;5.50;;;13.90;83.50;;;13.63;67.29;98936.97;5112981;27;20456;-76
2022/10/03 09:37:14;;;;;;;7.03;4.87;;;13.60;82.00;;;13.52;68.59;98944.69;5086650;28;20457;-74
2022/10/03 09:40:25;;;;;;;7.13;4.40;;;13.30;82.90;;;13.84;67.58;98941.28;5105744;28;20471;-76
2022/10/03 09:43:37;;;;;;;8.23;5.13;;;13.40;83.20;;;14.00;66.76;98942.66;5105101;28;20450;-78
2022/10/03 09:50:31;;;;;;;6.60;5.40;;;13.90;82.20;;;14.07;67.48;98948.09;5117187;27;20457;-77
2022/10/03 09:54:00;;;;;;;8.13;5.70;;;13.70;82.70;;;14.22;66.54;98937.75;5084773;27;20551;-76
2022/10/03 09:57:03;;;;;;;7.97;5.83;;;13.70;82.30;;;14.40;65.35;98926.19;5075688;27;20447;-78
2022/10/03 10:00:02;;;;;;;8.87;4.37;;;14.10;82.00;;;14.62;64.83;98933.97;5110679;27;20464;-78
2022/10/03 10:03:22;;;;;;;7.47;5.00;;;14.30;82.00;;;14.59;65.50;98934.41;5112148;27;20466;-76
2022/10/03 10:06:27;;;;;;;9.00;4.90;;;14.30;82.10;;;14.45;65.28;98925.53;5116046;27;20466;-75
2022/10/03 10:09:31;;;;;;;8.53;4.60;;;14.30;81.40;;;14.50;64.60;98935.75;5094571;28;21146;-76
2022/10/03 10:12:51;;;;;;;8.83;3.83;;;14.20;80.90;;;14.62;63.78;98928.53;5112192;27;20452;-77
2022/10/03 10:16:01;;;;;;;5.30;2.87;;;14.40;80.50;;;14.31;63.44;98927.47;5106872;28;20545;-77
2022/10/03 10:19:09;;;;;;;7.33;3.30;;;14.30;79.40;;;14.34;63.29;98926.22;5082286;28;20472;-79
2022/10/03 10:22:16;;;;;;;9.13;3.73;;;14.10;80.00;;;14.95;62.38;98927.50;5102260;28;20447;-76
2022/10/03 10:25:25;;;;;;;6.27;4.00;;;14.40;80.10;;;15.43;61.04;98923.28;5111120;28;20526;-77
2022/10/03 10:28:30;;;;;;;7.13;3.90;;;15.00;79.60;;;15.71;60.88;98923.84;5117848;28;20514;-79
2022/10/03 10:31:48;;;;;;;7.77;3.80;;;15.20;78.90;;;15.80;60.16;98918.94;5120051;28;20817;-74
2022/10/03 10:35:06;;;;;;;6.37;3.57;;;15.30;78.60;;;16.04;59.70;98917.19;5109433;28;20455;-76
2022/10/03 10:38:10;;;;;;;5.03;3.20;;;15.70;78.10;;;15.86;59.06;98924.31;5095773;28;20475;-76
2022/10/03 10:41:36;;;;;;;6.40;3.57;;;15.60;77.20;;;15.70;58.65;98930.38;5106936;28;20455;-79
2022/10/03 10:45:06;;;;;;;5.73;2.77;;;15.50;77.50;;;15.68;59.27;98924.28;5092291;28;20552;-80
2022/10/03 10:48:20;;;;;;;4.47;2.63;;;15.30;76.80;;;16.08;58.53;98928.47;5047534;28;20476;-77
2022/10/03 10:51:37;;;;;;;7.60;2.83;;;15.40;77.10;;;15.98;58.01;98929.84;5068770;28;20463;-79
2022/10/03 10:55:21;;;;;;;7.47;2.93;;;15.50;76.30;;;15.71;58.81;98926.56;5096203;28;20978;-83
2022/10/03 10:58:46;;;;;;;7.40;2.60;;;15.50;76.20;;;15.94;58.60;98920.47;5055834;28;20483;-80
2022/10/03 11:02:00;;;;;;;4.83;2.30;;;15.60;76.50;;;15.52;58.34;98928.44;5088554;28;20475;-83
2022/10/03 11:05:20;;;;;;;5.50;2.20;;;15.30;75.50;;;16.18;57.45;98923.28;5063995;28;20468;-77
2022/10/03 11:08:51;;;;;;;6.23;2.73;;;15.70;75.80;;;16.02;57.48;98919.31;5076535;28;21672;-78
2022/10/03 11:12:34;;;;;;;4.70;2.33;;;15.70;75.50;;;16.10;57.23;98905.38;5118164;28;20482;-80
2022/10/03 11:15:46;;;;;;;3.83;2.23;;;15.60;75.20;;;16.21;55.31;98917.38;5117726;28;20459;-82
2022/10/03 11:19:10;;;;;;;5.60;1.90;;;15.80;73.70;;;16.55;55.21;98912.31;5112536;28;20457;-82
2022/10/03 11:22:37;;;;;;;5.07;2.57;;;15.90;73.80;;;16.73;54.87;98915.19;5106916;28;21279;-81
2022/10/03 11:26:12;;;;;;;3.07;1.60;;;16.30;73.30;;;16.24;54.11;98918.81;5101312;28;20720;-83
2022/10/03 11:29:54;;;;;;;3.40;1.70;;;16.10;71.00;;;16.23;54.37;98914.44;5100510;27;20478;-80
2022/10/03 11:33:26;;;;;;;10.00;2.17;;;15.80;71.50;;;15.91;53.37;98925.53;5095533;27;20453;-84
2022/10/03 11:36:42;;;;;;;2.90;1.70;;;15.60;69.70;;;15.69;53.52;98912.31;5110411;27;20489;-83
2022/10/03 11:39:23;;;;;;;4.70;1.70;;;15.50;69.50;;;15.76;53.90;98915.81;5121488;27;20481;-88
2022/10/03 11:42:01;;;;;;;4.90;1.80;;;15.50;69.40;;;16.13;51.86;98918.53;5119238;27;20464;-82
2022/10/03 11:44:32;;;;;;;2.73;1.33;;;15.70;68.80;;;15.82;52.81;98912.19;5132751;27;20478;-84
2022/10/03 11:47:38;;;;;;;3.63;1.83;;;15.70;68.30;;;15.79;53.97;98917.28;5125393;27;20452;-81
2022/10/03 11:50:39;;;;;;;3.17;1.20;;;15.60;69.20;;;15.68;52.82;98906.06;5100509;27;20488;-82
2022/10/03 11:53:23;;;;;;;3.30;1.43;;;15.60;68.40;;;15.82;53.50;98901.28;5137461;27;20562;-86
2022/10/03 11:56:20;;;;;;;2.87;1.33;;;15.50;69.00;;;15.13;54.52;98852.41;5141085;27;20447;-83
2022/10/03 11:59:04;;;;;;;3.70;1.70;;;15.40;69.50;;;15.50;53.43;98923.22;5133299;27;20684;-84
2022/10/03 12:01:52;;;;;;;4.03;2.67;;;15.30;68.70;;;15.48;54.90;98922.63;5122020;27;20460;-84
2022/10/03 12:04:29;;;;;;;6.70;2.07;;;15.10;69.40;;;15.30;55.83;98929.72;5107555;27;20507;-79
2022/10/03 12:10:02;;;;;;;4.27;1.97;;;15.00;69.60;;;15.15;54.48;98915.63;5103912;27;20858;-81
2022/10/03 12:12:41;;;;;;;3.90;1.93;;;14.90;69.10;;;15.21;55.26;98876.59;5115788;27;20506;-81
2022/10/03 12:15:33;;;;;;;3.70;1.67;;;15.00;70.10;;;15.72;53.57;98903.72;5112610;27;20459;-82
2022/10/03 12:18:09;;;;;;;4.97;1.93;;;15.20;69.30;;;16.03;53.30;98898.34;5110584;27;20461;-82
2022/10/03 12:21:03;;;;;;;1.73;1.47;;;15.50;69.70;;;16.19;51.82;98907.78;5096634;27;20901;-80
2022/10/03 12:23:54;;;;;;;6.93;1.43;;;15.70;67.50;;;16.12;51.80;98897.78;5096882;27;20831;-81
2022/10/03 12:26:37;;;;;;;2.47;1.30;;;15.80;68.10;;;16.06;50.91;98900.59;5097911;27;20579;-77
2022/10/03 12:29:11;;;;;;;3.70;1.40;;;15.70;66.10;;;16.06;50.40;98897.88;5112394;27;20473;-86
2022/10/03 12:31:44;;;;;;;4.60;1.50;;;15.70;65.50;;;16.18;50.71;98903.41;5114868;27;20460;-75
2022/10/03 12:34:36;;;;;;;1.60;0.90;;;15.70;66.20;;;16.17;50.63;98888.09;5114921;27;20557;-77
2022/10/03 12:37:43;;;;;;;2.20;1.50;;;15.70;65.50;;;15.97;51.00;98891.91;5114917;27;20483;-74
2022/10/03 12:40:20;;;;;;;2.13;1.23;;;15.60;65.80;;;16.14;50.82;98887.47;5114733;27;20565;-82
2022/10/03 12:43:05;;;;;;;2.20;1.17;;;15.70;65.90;;;16.30;50.79;98890.63;5098085;27;20523;-77
2022/10/03 12:45:40;;;;;;;5.73;1.60;;;15.80;65.90;;;16.36;50.56;98886.97;5113824;27;20459;-74
2022/10/03 12:48:34;;;;;;;3.60;1.30;;;15.80;65.60;;;16.70;49.86;98881.03;5115725;27;20487;-77
2022/10/03 12:51:15;;;;;;;2.60;1.43;;;16.10;65.70;;;16.22;48.92;98878.16;5099851;28;20452;-75
2022/10/03 12:53:57;;;;;;;2.70;1.20;;;16.00;64.00;;;16.48;48.90;98880.75;5093125;27;20548;-75